Time,TemperatureF,DewpointF,PressureIn,WindDirection,WindDirectionDegrees,WindSpeedMPH,WindSpeedGustMPH,Humidity,HourlyPrecipIn,Conditions,Clouds,dailyrainin,SoftwareType,DateUTC
2013-04-15 00:02:00,30.0,27.0,29.75,East,90,0.0,0.0,90,-99.99,,,-99.99,,2013-04-15 06:02:00,
2013-04-15 00:12:00,30.0,27.0,29.75,East,90,0.0,0.0,89,-99.99,,,-99.99,,2013-04-15 06:12:00,
2013-04-15 00:17:00,30.0,27.0,29.75,East,90,0.0,0.0,88,-99.99,,,-99.99,,2013-04-15 06:17:00,
2013-04-15 00:27:00,30.0,27.0,29.75,East,90,0.0,0.0,88,-99.99,,,-99.99,,2013-04-15 06:27:00,
2013-04-15 00:32:00,30.0,27.0,29.75,East,90,0.0,0.0,89,-99.99,,,-99.99,,2013-04-15 06:32:00,
2013-04-15 00:42:00,30.0,28.0,29.76,West,280,5.0,5.0,91,-99.99,,,-99.99,,2013-04-15 06:42:00,
2013-04-15 00:52:00,30.0,28.0,29.75,WSW,250,0.0,5.0,94,-99.99,,,-99.99,,2013-04-15 06:52:00,
2013-04-15 00:57:00,29.0,28.0,29.75,WSW,250,0.0,0.0,95,-99.99,,,-99.99,,2013-04-15 06:57:00,
2013-04-15 01:42:00,29.0,29.0,29.72,NE,40,0.0,0.0,98,-99.99,,,-99.99,,2013-04-15 07:42:00,
2013-04-15 01:47:00,29.0,29.0,29.72,NE,40,0.0,0.0,99,-99.99,,,-99.99,,2013-04-15 07:47:00,
2013-04-15 01:52:00,29.0,29.0,29.72,NE,40,0.0,0.0,100,-99.99,,,-99.99,,2013-04-15 07:52:00,
2013-04-15 01:57:00,29.0,29.0,29.71,NE,40,0.0,0.0,100,-99.99,,,-99.99,,2013-04-15 07:57:00,
2013-04-15 02:02:00,29.0,29.0,29.70,NE,40,0.0,0.0,100,-99.99,,,-99.99,,2013-04-15 08:02:00,
2013-04-15 02:07:00,29.0,29.0,29.70,East,90,6.0,6.0,100,-99.99,,,-99.99,,2013-04-15 08:07:00,
2013-04-15 02:12:00,29.0,29.0,29.70,ENE,70,4.0,8.0,100,-99.99,,,-99.99,,2013-04-15 08:12:00,
2013-04-15 02:22:00,29.0,29.0,29.69,SSE,150,6.0,10.0,100,-99.99,,,-99.99,,2013-04-15 08:22:00,
2013-04-15 02:37:00,30.0,30.0,29.67,South,170,14.0,17.0,100,-99.99,,,-99.99,,2013-04-15 08:37:00,
2013-04-15 02:42:00,31.0,31.0,29.67,SSE,150,10.0,17.0,100,-99.99,,,-99.99,,2013-04-15 08:42:00,
2013-04-15 02:47:00,31.0,31.0,29.67,South,170,12.0,15.0,100,-99.99,,,-99.99,,2013-04-15 08:47:00,
2013-04-15 02:52:00,31.0,31.0,29.66,South,180,9.0,14.0,100,-99.99,,,-99.99,,2013-04-15 08:52:00,
2013-04-15 02:57:00,31.0,31.0,29.66,SSE,150,7.0,14.0,100,-99.99,,,-99.99,,2013-04-15 08:57:00,
2013-04-15 03:07:00,31.0,31.0,29.66,South,180,7.0,9.0,100,-99.99,,,-99.99,,2013-04-15 09:07:00,
2013-04-15 03:12:00,31.0,31.0,29.66,SSE,150,6.0,9.0,100,-99.99,,,-99.99,,2013-04-15 09:12:00,
2013-04-15 03:22:00,31.0,31.0,29.66,SSE,150,4.0,8.0,100,-99.99,,,-99.99,,2013-04-15 09:22:00,
2013-04-15 03:32:00,31.0,31.0,29.65,SE,140,0.0,5.0,100,-99.99,,,-99.99,,2013-04-15 09:32:00,
2013-04-15 03:42:00,30.0,30.0,29.65,East,90,4.0,6.0,100,-99.99,,,-99.99,,2013-04-15 09:42:00,
2013-04-15 03:47:00,30.0,30.0,29.65,SE,140,5.0,6.0,100,-99.99,,,-99.99,,2013-04-15 09:47:00,
2013-04-15 03:52:00,30.0,30.0,29.65,SSE,160,5.0,8.0,100,-99.99,,,-99.99,,2013-04-15 09:52:00,
2013-04-15 04:02:00,30.0,30.0,29.65,SE,140,6.0,9.0,100,-99.99,,,-99.99,,2013-04-15 10:02:00,
2013-04-15 04:12:00,31.0,31.0,29.64,SSE,160,11.0,11.0,100,-99.99,,,-99.99,,2013-04-15 10:12:00,
2013-04-15 04:17:00,31.0,31.0,29.64,SSE,160,13.0,13.0,100,-99.99,,,-99.99,,2013-04-15 10:17:00,
2013-04-15 04:22:00,31.0,31.0,29.63,South,170,12.0,13.0,100,-99.99,,,-99.99,,2013-04-15 10:22:00,
2013-04-15 04:32:00,31.0,31.0,29.63,South,180,10.0,13.0,100,-99.99,,,-99.99,,2013-04-15 10:32:00,
2013-04-15 04:42:00,32.0,32.0,29.63,SSE,160,12.0,14.0,100,-99.99,,,-99.99,,2013-04-15 10:42:00,
2013-04-15 04:52:00,32.0,32.0,29.63,SSE,160,10.0,12.0,100,-99.99,,,-99.99,,2013-04-15 10:52:00,
2013-04-15 05:02:00,32.0,32.0,29.64,South,180,6.0,10.0,100,-99.99,,,-99.99,,2013-04-15 11:02:00,
2013-04-15 05:07:00,32.0,32.0,29.63,South,170,7.0,10.0,100,-99.99,,,-99.99,,2013-04-15 11:07:00,
2013-04-15 05:17:00,32.0,32.0,29.64,SE,130,8.0,9.0,100,-99.99,,,-99.99,,2013-04-15 11:17:00,
2013-04-15 05:22:00,32.0,32.0,29.64,South,170,6.0,9.0,100,-99.99,,,-99.99,,2013-04-15 11:22:00,
2013-04-15 05:32:00,32.0,32.0,29.65,South,170,9.0,11.0,100,-99.99,,,-99.99,,2013-04-15 11:32:00,
2013-04-15 05:37:00,32.0,32.0,29.66,SE,140,7.0,12.0,100,-99.99,,,-99.99,,2013-04-15 11:37:00,
2013-04-15 05:47:00,32.0,32.0,29.65,ENE,70,5.0,8.0,100,-99.99,,,-99.99,,2013-04-15 11:47:00,
2013-04-15 05:57:00,32.0,32.0,29.65,East,100,6.0,6.0,100,-99.99,,,-99.99,,2013-04-15 11:57:00,
2013-04-15 06:02:00,32.0,32.0,29.65,SE,130,5.0,8.0,100,-99.99,,,-99.99,,2013-04-15 12:02:00,
2013-04-15 06:12:00,32.0,32.0,29.65,South,170,7.0,7.0,100,-99.99,,,-99.99,,2013-04-15 12:12:00,
2013-04-15 06:17:00,32.0,32.0,29.64,SSE,150,7.0,9.0,100,-99.99,,,-99.99,,2013-04-15 12:17:00,
2013-04-15 06:27:00,33.0,33.0,29.65,SSE,150,4.0,9.0,100,-99.99,,,-99.99,,2013-04-15 12:27:00,
2013-04-15 06:37:00,32.0,32.0,29.65,East,80,8.0,8.0,100,-99.99,,,-99.99,,2013-04-15 12:37:00,
2013-04-15 06:42:00,31.0,31.0,29.65,SE,130,4.0,10.0,100,-99.99,,,-99.99,,2013-04-15 12:42:00,
2013-04-15 06:47:00,31.0,31.0,29.64,SE,140,9.0,9.0,100,-99.99,,,-99.99,,2013-04-15 12:47:00,
2013-04-15 06:57:00,31.0,31.0,29.64,East,90,8.0,9.0,100,-99.99,,,-99.99,,2013-04-15 12:57:00,
2013-04-15 07:07:00,32.0,31.0,29.64,SE,140,5.0,8.0,100,-99.99,,,-99.99,,2013-04-15 13:07:00,
2013-04-15 07:17:00,32.0,32.0,29.65,SSE,160,11.0,12.0,100,-99.99,,,-99.99,,2013-04-15 13:17:00,
2013-04-15 07:22:00,32.0,32.0,29.65,South,180,8.0,11.0,100,-99.99,,,-99.99,,2013-04-15 13:22:00,
2013-04-15 07:32:00,34.0,33.0,29.65,South,180,11.0,15.0,98,-99.99,,,-99.99,,2013-04-15 13:32:00,
2013-04-15 07:37:00,34.0,33.0,29.65,South,180,13.0,16.0,98,-99.99,,,-99.99,,2013-04-15 13:37:00,
2013-04-15 07:47:00,35.0,34.0,29.65,South,180,12.0,13.0,97,-99.99,,,-99.99,,2013-04-15 13:47:00,
2013-04-15 07:57:00,35.0,34.0,29.66,SE,140,8.0,12.0,96,-99.99,,,-99.99,,2013-04-15 13:57:00,
2013-04-15 08:07:00,35.0,34.0,29.66,South,170,0.0,15.0,96,-99.99,,,-99.99,,2013-04-15 14:07:00,
2013-04-15 08:12:00,35.0,34.0,29.65,SSE,160,12.0,15.0,96,-99.99,,,-99.99,,2013-04-15 14:12:00,
2013-04-15 08:17:00,36.0,34.0,29.65,South,170,13.0,13.0,96,-99.99,,,-99.99,,2013-04-15 14:17:00,
2013-04-15 08:27:00,36.0,35.0,29.65,SSE,160,13.0,14.0,95,-99.99,,,-99.99,,2013-04-15 14:27:00,
2013-04-15 08:32:00,36.0,35.0,29.65,South,180,10.0,13.0,95,-99.99,,,-99.99,,2013-04-15 14:32:00,
2013-04-15 08:42:00,36.0,35.0,29.66,South,180,11.0,13.0,95,-99.99,,,-99.99,,2013-04-15 14:42:00,
2013-04-15 08:52:00,37.0,35.0,29.65,SSE,150,11.0,13.0,93,-99.99,,,-99.99,,2013-04-15 14:52:00,
2013-04-15 08:57:00,37.0,35.0,29.65,SSE,160,11.0,14.0,93,-99.99,,,-99.99,,2013-04-15 14:57:00,
2013-04-15 09:02:00,37.0,35.0,29.65,SSE,150,9.0,14.0,93,-99.99,,,-99.99,,2013-04-15 15:02:00,
2013-04-15 09:12:00,38.0,35.0,29.65,SSE,160,10.0,11.0,92,-99.99,,,-99.99,,2013-04-15 15:12:00,
2013-04-15 09:22:00,38.0,36.0,29.66,South,170,6.0,12.0,91,-99.99,,,-99.99,,2013-04-15 15:22:00,
2013-04-15 09:32:00,39.0,36.0,29.66,South,180,8.0,11.0,88,-99.99,,,-99.99,,2013-04-15 15:32:00,
2013-04-15 09:42:00,39.0,36.0,29.66,SE,130,0.0,10.0,88,-99.99,,,-99.99,,2013-04-15 15:42:00,
2013-04-15 09:52:00,40.0,35.0,29.66,SSE,160,0.0,0.0,84,-99.99,,,-99.99,,2013-04-15 15:52:00,
2013-04-15 10:02:00,41.0,36.0,29.66,SSE,160,9.0,9.0,81,-99.99,,,-99.99,,2013-04-15 16:02:00,
2013-04-15 10:07:00,41.0,35.0,29.67,South,170,6.0,9.0,80,-99.99,,,-99.99,,2013-04-15 16:07:00,
2013-04-15 10:17:00,40.0,36.0,29.68,SSW,200,12.0,15.0,84,-99.99,,,-99.99,,2013-04-15 16:17:00,
2013-04-15 10:22:00,40.0,36.0,29.68,SE,140,3.0,13.0,85,-99.99,,,-99.99,,2013-04-15 16:22:00,
2013-04-15 10:32:00,41.0,36.0,29.68,South,190,0.0,3.0,84,-99.99,,,-99.99,,2013-04-15 16:32:00,
2013-04-15 10:42:00,40.0,36.0,29.67,South,190,0.0,0.0,85,-99.99,,,-99.99,,2013-04-15 16:42:00,
2013-04-15 10:47:00,41.0,36.0,29.67,NE,50,0.0,0.0,84,-99.99,,,-99.99,,2013-04-15 16:47:00,
2013-04-15 10:52:00,41.0,36.0,29.67,NE,50,0.0,5.0,83,-99.99,,,-99.99,,2013-04-15 16:52:00,
2013-04-15 11:02:00,42.0,36.0,29.68,SW,220,0.0,5.0,80,-99.99,,,-99.99,,2013-04-15 17:02:00,
2013-04-15 11:07:00,42.0,36.0,29.68,NW,320,0.0,5.0,79,-99.99,,,-99.99,,2013-04-15 17:07:00,
2013-04-15 11:12:00,42.0,36.0,29.67,SE,140,5.0,10.0,81,-99.99,,,-99.99,,2013-04-15 17:12:00,
2013-04-15 11:22:00,42.0,37.0,29.67,SSW,200,6.0,14.0,83,-99.99,,,-99.99,,2013-04-15 17:22:00,
2013-04-15 11:27:00,42.0,37.0,29.67,SW,220,8.0,12.0,82,-99.99,,,-99.99,,2013-04-15 17:27:00,
2013-04-15 11:32:00,42.0,37.0,29.67,South,170,4.0,14.0,81,-99.99,,,-99.99,,2013-04-15 17:32:00,
2013-04-15 11:37:00,43.0,37.0,29.67,SW,220,0.0,10.0,79,-99.99,,,-99.99,,2013-04-15 17:37:00,
2013-04-15 11:42:00,44.0,37.0,29.67,NW,310,7.0,7.0,76,-99.99,,,-99.99,,2013-04-15 17:42:00,
2013-04-15 11:52:00,44.0,36.0,29.67,WNW,300,0.0,9.0,73,-99.99,,,-99.99,,2013-04-15 17:52:00,
2013-04-15 12:02:00,44.0,35.0,29.67,NNE,30,0.0,11.0,71,-99.99,,,-99.99,,2013-04-15 18:02:00,
2013-04-15 12:12:00,44.0,36.0,29.68,WNW,300,0.0,8.0,71,-99.99,,,-99.99,,2013-04-15 18:12:00,
2013-04-15 12:22:00,44.0,36.0,29.70,South,170,0.0,19.0,72,-99.99,,,-99.99,,2013-04-15 18:22:00,
2013-04-15 12:27:00,43.0,36.0,29.70,South,170,8.0,16.0,75,-99.99,,,-99.99,,2013-04-15 18:27:00,
2013-04-15 12:32:00,43.0,36.0,29.70,NW,320,7.0,10.0,75,-99.99,,,-99.99,,2013-04-15 18:32:00,
2013-04-15 12:37:00,42.0,36.0,29.70,NNW,340,6.0,9.0,77,-99.99,,,-99.99,,2013-04-15 18:37:00,
2013-04-15 12:47:00,41.0,36.0,29.71,WNW,300,9.0,14.0,82,-99.99,,,-99.99,,2013-04-15 18:47:00,
2013-04-15 12:52:00,40.0,36.0,29.70,NNW,330,6.0,10.0,84,-99.99,,,-99.99,,2013-04-15 18:52:00,
2013-04-15 12:57:00,40.0,36.0,29.71,NNW,330,7.0,8.0,85,-99.99,,,-99.99,,2013-04-15 18:57:00,
2013-04-15 13:02:00,41.0,37.0,29.71,NE,40,6.0,8.0,84,-99.99,,,-99.99,,2013-04-15 19:02:00,
2013-04-15 13:12:00,41.0,36.0,29.70,ENE,60,0.0,11.0,83,-99.99,,,-99.99,,2013-04-15 19:12:00,
2013-04-15 13:17:00,41.0,36.0,29.70,ENE,70,3.0,7.0,81,-99.99,,,-99.99,,2013-04-15 19:17:00,
2013-04-15 13:22:00,42.0,36.0,29.70,WSW,240,0.0,9.0,82,-99.99,,,-99.99,,2013-04-15 19:22:00,
2013-04-15 13:27:00,42.0,37.0,29.71,WSW,240,0.0,0.0,81,-99.99,,,-99.99,,2013-04-15 19:27:00,
2013-04-15 13:32:00,42.0,36.0,29.70,SSW,200,6.0,6.0,78,-99.99,,,-99.99,,2013-04-15 19:32:00,
2013-04-15 13:37:00,42.0,36.0,29.71,West,260,5.0,11.0,78,-99.99,,,-99.99,,2013-04-15 19:37:00,
2013-04-15 13:42:00,43.0,36.0,29.70,SW,230,7.0,8.0,77,-99.99,,,-99.99,,2013-04-15 19:42:00,
2013-04-15 13:57:00,44.0,36.0,29.70,NE,40,0.0,9.0,74,-99.99,,,-99.99,,2013-04-15 19:57:00,
2013-04-15 14:02:00,44.0,36.0,29.70,SW,230,10.0,10.0,75,-99.99,,,-99.99,,2013-04-15 20:02:00,
2013-04-15 14:12:00,42.0,36.0,29.71,NNW,330,14.0,14.0,79,-99.99,,,-99.99,,2013-04-15 20:12:00,
2013-04-15 14:17:00,41.0,36.0,29.71,West,280,14.0,17.0,83,-99.99,,,-99.99,,2013-04-15 20:17:00,
2013-04-15 14:22:00,40.0,36.0,29.71,NNE,30,13.0,16.0,84,-99.99,,,-99.99,,2013-04-15 20:22:00,
2013-04-15 14:27:00,40.0,35.0,29.72,WNW,300,11.0,11.0,83,-99.99,,,-99.99,,2013-04-15 20:27:00,
2013-04-15 14:32:00,40.0,36.0,29.71,West,270,16.0,16.0,86,-99.99,,,-99.99,,2013-04-15 20:32:00,
2013-04-15 14:37:00,39.0,35.0,29.71,WNW,300,10.0,18.0,86,-99.99,,,-99.99,,2013-04-15 20:37:00,
2013-04-15 14:42:00,39.0,35.0,29.72,West,270,18.0,18.0,88,-99.99,,,-99.99,,2013-04-15 20:42:00,
2013-04-15 14:52:00,39.0,35.0,29.71,WSW,240,12.0,14.0,86,-99.99,,,-99.99,,2013-04-15 20:52:00,
2013-04-15 15:02:00,40.0,35.0,29.72,West,270,8.0,13.0,83,-99.99,,,-99.99,,2013-04-15 21:02:00,
2013-04-15 15:07:00,40.0,35.0,29.72,NNW,340,9.0,13.0,82,-99.99,,,-99.99,,2013-04-15 21:07:00,
2013-04-15 15:17:00,40.0,35.0,29.73,WNW,290,9.0,12.0,85,-99.99,,,-99.99,,2013-04-15 21:17:00,
2013-04-15 15:22:00,40.0,36.0,29.72,West,280,10.0,10.0,85,-99.99,,,-99.99,,2013-04-15 21:22:00,
2013-04-15 15:27:00,40.0,35.0,29.72,WNW,290,17.0,17.0,84,-99.99,,,-99.99,,2013-04-15 21:27:00,
2013-04-15 15:32:00,38.0,35.0,29.72,WSW,250,14.0,17.0,88,-99.99,,,-99.99,,2013-04-15 21:32:00,
2013-04-15 15:37:00,38.0,35.0,29.72,WNW,290,10.0,15.0,89,-99.99,,,-99.99,,2013-04-15 21:37:00,
2013-04-15 15:47:00,37.0,34.0,29.71,NNW,340,7.0,19.0,89,-99.99,,,-99.99,,2013-04-15 21:47:00,
2013-04-15 15:57:00,37.0,34.0,29.71,NW,310,14.0,15.0,86,-99.99,,,-99.99,,2013-04-15 21:57:00,
2013-04-15 16:02:00,38.0,34.0,29.71,WNW,300,12.0,14.0,86,-99.99,,,-99.99,,2013-04-15 22:02:00,
2013-04-15 16:07:00,38.0,34.0,29.71,NW,310,11.0,15.0,86,-99.99,,,-99.99,,2013-04-15 22:07:00,
2013-04-15 16:12:00,38.0,34.0,29.71,West,280,12.0,16.0,87,-99.99,,,-99.99,,2013-04-15 22:12:00,
2013-04-15 16:22:00,37.0,33.0,29.71,West,280,13.0,16.0,84,-99.99,,,-99.99,,2013-04-15 22:22:00,
2013-04-15 16:32:00,37.0,33.0,29.72,WSW,250,10.0,16.0,85,-99.99,,,-99.99,,2013-04-15 22:32:00,
2013-04-15 16:42:00,38.0,33.0,29.72,WNW,300,13.0,17.0,85,-99.99,,,-99.99,,2013-04-15 22:42:00,
2013-04-15 16:47:00,38.0,34.0,29.72,West,280,18.0,18.0,85,-99.99,,,-99.99,,2013-04-15 22:47:00,
2013-04-15 16:52:00,38.0,34.0,29.72,WNW,290,16.0,20.0,86,-99.99,,,-99.99,,2013-04-15 22:52:00,
2013-04-15 16:57:00,37.0,34.0,29.71,WNW,300,14.0,19.0,87,-99.99,,,-99.99,,2013-04-15 22:57:00,
2013-04-15 17:07:00,38.0,34.0,29.71,WNW,300,16.0,16.0,86,-99.99,,,-99.99,,2013-04-15 23:07:00,
2013-04-15 17:12:00,38.0,34.0,29.72,WSW,250,13.0,17.0,86,-99.99,,,-99.99,,2013-04-15 23:12:00,
2013-04-15 17:22:00,37.0,34.0,29.72,WNW,300,16.0,19.0,87,-99.99,,,-99.99,,2013-04-15 23:22:00,
2013-04-15 17:27:00,37.0,34.0,29.73,West,280,13.0,19.0,86,-99.99,,,-99.99,,2013-04-15 23:27:00,
2013-04-15 17:37:00,38.0,34.0,29.73,West,270,13.0,17.0,86,-99.99,,,-99.99,,2013-04-15 23:37:00,
2013-04-15 17:42:00,38.0,34.0,29.73,NW,310,15.0,16.0,85,-99.99,,,-99.99,,2013-04-15 23:42:00,
2013-04-15 17:52:00,37.0,33.0,29.73,WNW,300,16.0,19.0,85,-99.99,,,-99.99,,2013-04-15 23:52:00,
2013-04-15 18:02:00,37.0,33.0,29.73,WNW,300,15.0,17.0,85,-99.99,,,-99.99,,2013-04-16 00:02:00,
2013-04-15 18:07:00,37.0,33.0,29.73,WNW,300,11.0,16.0,85,-99.99,,,-99.99,,2013-04-16 00:07:00,
2013-04-15 18:12:00,37.0,33.0,29.73,NNW,330,8.0,15.0,84,-99.99,,,-99.99,,2013-04-16 00:12:00,
2013-04-15 18:17:00,38.0,33.0,29.73,NW,310,9.0,16.0,84,-99.99,,,-99.99,,2013-04-16 00:17:00,
2013-04-15 18:27:00,38.0,33.0,29.73,West,260,9.0,15.0,83,-99.99,,,-99.99,,2013-04-16 00:27:00,
2013-04-15 18:32:00,38.0,33.0,29.73,NW,310,14.0,14.0,81,-99.99,,,-99.99,,2013-04-16 00:32:00,
2013-04-15 18:37:00,38.0,33.0,29.74,West,270,6.0,14.0,81,-99.99,,,-99.99,,2013-04-16 00:37:00,
2013-04-15 18:47:00,39.0,33.0,29.75,North,350,0.0,8.0,80,-99.99,,,-99.99,,2013-04-16 00:47:00,
2013-04-15 18:57:00,38.0,32.0,29.75,West,280,9.0,13.0,78,-99.99,,,-99.99,,2013-04-16 00:57:00,
2013-04-15 19:02:00,37.0,32.0,29.74,NW,320,8.0,13.0,79,-99.99,,,-99.99,,2013-04-16 01:02:00,
2013-04-15 19:12:00,37.0,31.0,29.74,North,0,0.0,7.0,81,-99.99,,,-99.99,,2013-04-16 01:12:00,
2013-04-15 19:22:00,36.0,32.0,29.74,West,270,7.0,7.0,84,-99.99,,,-99.99,,2013-04-16 01:22:00,
2013-04-15 19:32:00,35.0,31.0,29.74,NW,310,9.0,11.0,85,-99.99,,,-99.99,,2013-04-16 01:32:00,
2013-04-15 19:37:00,35.0,31.0,29.74,WNW,300,7.0,10.0,86,-99.99,,,-99.99,,2013-04-16 01:37:00,
2013-04-15 19:42:00,34.0,31.0,29.74,North,0,7.0,8.0,88,-99.99,,,-99.99,,2013-04-16 01:42:00,
2013-04-15 19:52:00,34.0,31.0,29.74,NNW,340,6.0,6.0,89,-99.99,,,-99.99,,2013-04-16 01:52:00,
2013-04-15 20:02:00,34.0,31.0,29.75,WNW,290,0.0,6.0,90,-99.99,,,-99.99,,2013-04-16 02:02:00,
2013-04-15 20:07:00,34.0,31.0,29.75,WNW,290,0.0,0.0,89,-99.99,,,-99.99,,2013-04-16 02:07:00,
2013-04-15 20:12:00,34.0,31.0,29.75,WNW,290,0.0,0.0,89,-99.99,,,-99.99,,2013-04-16 02:12:00,
2013-04-15 20:17:00,33.0,30.0,29.75,WNW,290,0.0,0.0,89,-99.99,,,-99.99,,2013-04-16 02:17:00,
2013-04-15 20:27:00,33.0,30.0,29.75,West,260,0.0,4.0,91,-99.99,,,-99.99,,2013-04-16 02:27:00,
2013-04-15 20:37:00,32.0,30.0,29.75,WNW,290,3.0,5.0,91,-99.99,,,-99.99,,2013-04-16 02:37:00,
2013-04-15 20:42:00,32.0,30.0,29.75,WNW,300,0.0,4.0,91,-99.99,,,-99.99,,2013-04-16 02:42:00,
2013-04-15 20:47:00,32.0,30.0,29.75,WNW,300,0.0,0.0,92,-99.99,,,-99.99,,2013-04-16 02:47:00,
2013-04-15 20:57:00,31.0,29.0,29.75,WNW,300,0.0,0.0,92,-99.99,,,-99.99,,2013-04-16 02:57:00,
2013-04-15 21:07:00,31.0,29.0,29.75,WNW,300,0.0,0.0,92,-99.99,,,-99.99,,2013-04-16 03:07:00,
2013-04-15 21:17:00,31.0,29.0,29.76,West,280,0.0,5.0,93,-99.99,,,-99.99,,2013-04-16 03:17:00,
2013-04-15 21:22:00,31.0,29.0,29.75,West,280,0.0,4.0,93,-99.99,,,-99.99,,2013-04-16 03:22:00,
2013-04-15 21:27:00,31.0,29.0,29.75,North,0,0.0,5.0,93,-99.99,,,-99.99,,2013-04-16 03:27:00,
2013-04-15 21:37:00,30.0,28.0,29.76,North,0,0.0,0.0,92,-99.99,,,-99.99,,2013-04-16 03:37:00,
2013-04-15 21:47:00,30.0,28.0,29.75,North,0,5.0,6.0,93,-99.99,,,-99.99,,2013-04-16 03:47:00,
2013-04-15 21:57:00,29.0,27.0,29.76,NW,320,7.0,7.0,93,-99.99,,,-99.99,,2013-04-16 03:57:00,
2013-04-15 22:02:00,29.0,27.0,29.76,NW,310,6.0,9.0,94,-99.99,,,-99.99,,2013-04-16 04:02:00,
2013-04-15 22:07:00,29.0,27.0,29.76,WNW,300,6.0,8.0,95,-99.99,,,-99.99,,2013-04-16 04:07:00,
2013-04-15 22:12:00,29.0,28.0,29.75,NW,320,6.0,9.0,95,-99.99,,,-99.99,,2013-04-16 04:12:00,
2013-04-15 22:17:00,29.0,28.0,29.75,North,350,6.0,8.0,95,-99.99,,,-99.99,,2013-04-16 04:17:00,
2013-04-15 22:22:00,29.0,28.0,29.75,North,0,6.0,9.0,95,-99.99,,,-99.99,,2013-04-16 04:22:00,
2013-04-15 22:27:00,29.0,27.0,29.75,NNW,330,7.0,8.0,95,-99.99,,,-99.99,,2013-04-16 04:27:00,
2013-04-15 22:32:00,29.0,27.0,29.76,WNW,290,5.0,8.0,96,-99.99,,,-99.99,,2013-04-16 04:32:00,
2013-04-15 22:42:00,28.0,27.0,29.75,NNW,340,6.0,9.0,95,-99.99,,,-99.99,,2013-04-16 04:42:00,
2013-04-15 22:47:00,28.0,27.0,29.75,NW,320,6.0,9.0,95,-99.99,,,-99.99,,2013-04-16 04:47:00,
2013-04-15 22:52:00,28.0,27.0,29.75,NNE,30,8.0,8.0,96,-99.99,,,-99.99,,2013-04-16 04:52:00,
2013-04-15 23:02:00,28.0,26.0,29.75,NW,320,6.0,6.0,95,-99.99,,,-99.99,,2013-04-16 05:02:00,
2013-04-15 23:12:00,27.0,26.0,29.74,North,350,6.0,9.0,95,-99.99,,,-99.99,,2013-04-16 05:12:00,
2013-04-15 23:22:00,27.0,26.0,29.74,NNW,340,9.0,9.0,95,-99.99,,,-99.99,,2013-04-16 05:22:00,
2013-04-15 23:27:00,27.0,25.0,29.74,North,0,5.0,8.0,96,-99.99,,,-99.99,,2013-04-16 05:27:00,
2013-04-15 23:32:00,26.0,25.0,29.74,North,0,7.0,7.0,95,-99.99,,,-99.99,,2013-04-16 05:32:00,
2013-04-15 23:37:00,26.0,25.0,29.74,NNW,330,7.0,9.0,95,-99.99,,,-99.99,,2013-04-16 05:37:00,
2013-04-15 23:47:00,27.0,26.0,29.74,NW,320,8.0,8.0,97,-99.99,,,-99.99,,2013-04-16 05:47:00,
2013-04-15 23:52:00,27.0,26.0,29.74,North,350,9.0,9.0,97,-99.99,,,-99.99,,2013-04-16 05:52:00,
2013-04-15 23:57:00,27.0,26.0,29.73,North,0,4.0,10.0,97,-99.99,,,-99.99,,2013-04-16 05:57:00,